sensor_id;sensor_type;location;lat;lon;timestamp;P1;durP1;ratioP1;P2;durP2;ratioP2
71238;SDS011;61342;51.442;7.370;2022-11-20T00:00:20;40.47;;;24.07;;
71238;SDS011;61342;51.442;7.370;2022-11-20T00:01:22;38.97;;;24.33;;
71238;SDS011;61342;51.442;7.370;2022-11-20T00:02:25;41.90;;;25.73;;
71238;SDS011;61342;51.442;7.370;2022-11-20T00:03:25;41.50;;;25.63;;
71238;SDS011;61342;51.442;7.370;2022-11-20T00:04:26;39.27;;;25.47;;
71238;SDS011;61342;51.442;7.370;2022-11-20T00:05:26;40.30;;;24.87;;
71238;SDS011;61342;51.442;7.370;2022-11-20T00:06:27;38.47;;;24.20;;
71238;SDS011;61342;51.442;7.370;2022-11-20T00:07:28;35.38;;;23.85;;
71238;SDS011;61342;51.442;7.370;2022-11-20T00:08:28;38.70;;;24.60;;
71238;SDS011;61342;51.442;7.370;2022-11-20T00:09:29;39.60;;;24.43;;
71238;SDS011;61342;51.442;7.370;2022-11-20T00:10:29;34.30;;;22.57;;
71238;SDS011;61342;51.442;7.370;2022-11-20T00:11:30;34.67;;;24.03;;
71238;SDS011;61342;51.442;7.370;2022-11-20T00:12:34;38.83;;;24.50;;
71238;SDS011;61342;51.442;7.370;2022-11-20T00:13:35;37.33;;;24.17;;
71238;SDS011;61342;51.442;7.370;2022-11-20T00:14:36;36.35;;;23.60;;
71238;SDS011;61342;51.442;7.370;2022-11-20T00:15:36;34.93;;;24.27;;
71238;SDS011;61342;51.442;7.370;2022-11-20T00:16:37;35.83;;;23.30;;
71238;SDS011;61342;51.442;7.370;2022-11-20T00:17:37;38.47;;;24.17;;
71238;SDS011;61342;51.442;7.370;2022-11-20T00:18:37;37.37;;;23.67;;
71238;SDS011;61342;51.442;7.370;2022-11-20T00:19:40;34.93;;;23.30;;
71238;SDS011;61342;51.442;7.370;2022-11-20T00:20:53;32.25;;;21.08;;
71238;SDS011;61342;51.442;7.370;2022-11-20T00:22:00;34.47;;;22.23;;
71238;SDS011;61342;51.442;7.370;2022-11-20T00:23:01;34.67;;;22.10;;
71238;SDS011;61342;51.442;7.370;2022-11-20T00:24:02;30.20;;;21.10;;
71238;SDS011;61342;51.442;7.370;2022-11-20T00:25:02;35.10;;;22.77;;
71238;SDS011;61342;51.442;7.370;2022-11-20T00:26:04;32.83;;;21.47;;
71238;SDS011;61342;51.442;7.370;2022-11-20T00:27:05;34.20;;;21.23;;
71238;SDS011;61342;51.442;7.370;2022-11-20T00:28:06;34.23;;;22.10;;
71238;SDS011;61342;51.442;7.370;2022-11-20T00:29:09;30.43;;;21.37;;
71238;SDS011;61342;51.442;7.370;2022-11-20T00:30:10;30.75;;;20.80;;
71238;SDS011;61342;51.442;7.370;2022-11-20T00:31:14;32.97;;;21.33;;
71238;SDS011;61342;51.442;7.370;2022-11-20T00:32:15;31.25;;;21.38;;
71238;SDS011;61342;51.442;7.370;2022-11-20T00:33:16;30.10;;;20.70;;
71238;SDS011;61342;51.442;7.370;2022-11-20T00:34:18;32.10;;;20.30;;
71238;SDS011;61342;51.442;7.370;2022-11-20T00:35:19;32.57;;;20.43;;
71238;SDS011;61342;51.442;7.370;2022-11-20T00:36:22;33.13;;;21.77;;
71238;SDS011;61342;51.442;7.370;2022-11-20T00:37:24;32.80;;;21.42;;
71238;SDS011;61342;51.442;7.370;2022-11-20T00:38:24;33.90;;;21.87;;
71238;SDS011;61342;51.442;7.370;2022-11-20T00:39:25;31.60;;;21.13;;
71238;SDS011;61342;51.442;7.370;2022-11-20T00:40:25;29.63;;;21.33;;
71238;SDS011;61342;51.442;7.370;2022-11-20T00:41:26;38.03;;;22.70;;
71238;SDS011;61342;51.442;7.370;2022-11-20T00:42:28;31.02;;;21.15;;
71238;SDS011;61342;51.442;7.370;2022-11-20T00:43:28;32.10;;;20.83;;
71238;SDS011;61342;51.442;7.370;2022-11-20T00:44:31;31.37;;;20.80;;
71238;SDS011;61342;51.442;7.370;2022-11-20T00:45:34;31.35;;;20.75;;
71238;SDS011;61342;51.442;7.370;2022-11-20T00:46:35;30.92;;;20.33;;
71238;SDS011;61342;51.442;7.370;2022-11-20T00:47:35;30.03;;;20.27;;
71238;SDS011;61342;51.442;7.370;2022-11-20T00:48:36;28.10;;;20.07;;
71238;SDS011;61342;51.442;7.370;2022-11-20T00:49:39;29.07;;;19.40;;
71238;SDS011;61342;51.442;7.370;2022-11-20T00:50:40;29.45;;;18.75;;
71238;SDS011;61342;51.442;7.370;2022-11-20T00:51:44;26.23;;;19.13;;
71238;SDS011;61342;51.442;7.370;2022-11-20T00:52:47;25.25;;;17.77;;
71238;SDS011;61342;51.442;7.370;2022-11-20T00:53:48;25.47;;;18.07;;
71238;SDS011;61342;51.442;7.370;2022-11-20T00:54:49;26.15;;;18.00;;
71238;SDS011;61342;51.442;7.370;2022-11-20T00:55:59;28.30;;;18.87;;
71238;SDS011;61342;51.442;7.370;2022-11-20T00:57:09;31.17;;;19.40;;
71238;SDS011;61342;51.442;7.370;2022-11-20T00:58:12;27.38;;;19.15;;
71238;SDS011;61342;51.442;7.370;2022-11-20T00:59:15;26.35;;;17.80;;
71238;SDS011;61342;51.442;7.370;2022-11-20T01:00:15;27.33;;;18.83;;
71238;SDS011;61342;51.442;7.370;2022-11-20T01:01:17;27.33;;;18.90;;
71238;SDS011;61342;51.442;7.370;2022-11-20T01:02:19;25.20;;;18.08;;
71238;SDS011;61342;51.442;7.370;2022-11-20T01:03:20;28.33;;;18.37;;
71238;SDS011;61342;51.442;7.370;2022-11-20T01:04:23;24.60;;;17.90;;
71238;SDS011;61342;51.442;7.370;2022-11-20T01:05:23;28.37;;;18.67;;
71238;SDS011;61342;51.442;7.370;2022-11-20T01:06:25;27.07;;;19.47;;
71238;SDS011;61342;51.442;7.370;2022-11-20T01:07:33;26.05;;;18.70;;
71238;SDS011;61342;51.442;7.370;2022-11-20T01:08:34;27.53;;;18.87;;
71238;SDS011;61342;51.442;7.370;2022-11-20T01:09:36;28.08;;;19.85;;
71238;SDS011;61342;51.442;7.370;2022-11-20T01:10:36;27.50;;;19.13;;
71238;SDS011;61342;51.442;7.370;2022-11-20T01:11:38;29.30;;;19.60;;
71238;SDS011;61342;51.442;7.370;2022-11-20T01:12:42;27.92;;;19.63;;
71238;SDS011;61342;51.442;7.370;2022-11-20T01:13:43;28.07;;;19.27;;
71238;SDS011;61342;51.442;7.370;2022-11-20T01:14:46;26.73;;;19.27;;
71238;SDS011;61342;51.442;7.370;2022-11-20T01:15:47;27.00;;;19.13;;
71238;SDS011;61342;51.442;7.370;2022-11-20T01:16:50;29.47;;;20.33;;
71238;SDS011;61342;51.442;7.370;2022-11-20T01:17:51;26.83;;;18.20;;
71238;SDS011;61342;51.442;7.370;2022-11-20T01:18:52;25.03;;;17.10;;
71238;SDS011;61342;51.442;7.370;2022-11-20T01:19:54;26.67;;;17.75;;
71238;SDS011;61342;51.442;7.370;2022-11-20T01:20:54;26.67;;;18.67;;
71238;SDS011;61342;51.442;7.370;2022-11-20T01:21:54;26.03;;;18.03;;
71238;SDS011;61342;51.442;7.370;2022-11-20T01:22:55;26.77;;;17.23;;
71238;SDS011;61342;51.442;7.370;2022-11-20T01:23:55;27.20;;;19.07;;
71238;SDS011;61342;51.442;7.370;2022-11-20T01:24:56;23.13;;;16.87;;
71238;SDS011;61342;51.442;7.370;2022-11-20T01:25:58;23.67;;;17.20;;
71238;SDS011;61342;51.442;7.370;2022-11-20T01:27:02;27.27;;;17.13;;
71238;SDS011;61342;51.442;7.370;2022-11-20T01:28:05;25.10;;;17.87;;
71238;SDS011;61342;51.442;7.370;2022-11-20T01:29:06;23.80;;;17.33;;
71238;SDS011;61342;51.442;7.370;2022-11-20T01:30:15;27.60;;;18.52;;
71238;SDS011;61342;51.442;7.370;2022-11-20T01:32:31;25.00;;;18.27;;
71238;SDS011;61342;51.442;7.370;2022-11-20T01:33:32;26.60;;;18.70;;
71238;SDS011;61342;51.442;7.370;2022-11-20T01:34:35;24.77;;;17.77;;
71238;SDS011;61342;51.442;7.370;2022-11-20T01:35:35;25.63;;;18.27;;
71238;SDS011;61342;51.442;7.370;2022-11-20T01:36:36;23.57;;;17.30;;
71238;SDS011;61342;51.442;7.370;2022-11-20T01:37:37;25.30;;;17.33;;
71238;SDS011;61342;51.442;7.370;2022-11-20T01:38:41;25.42;;;17.17;;
71238;SDS011;61342;51.442;7.370;2022-11-20T01:39:42;25.80;;;17.35;;
71238;SDS011;61342;51.442;7.370;2022-11-20T01:40:42;25.77;;;18.07;;
71238;SDS011;61342;51.442;7.370;2022-11-20T01:41:43;26.30;;;18.70;;
71238;SDS011;61342;51.442;7.370;2022-11-20T01:43:37;25.08;;;17.08;;
71238;SDS011;61342;51.442;7.370;2022-11-20T01:47:13;25.17;;;17.38;;
71238;SDS011;61342;51.442;7.370;2022-11-20T01:48:17;24.75;;;18.38;;
71238;SDS011;61342;51.442;7.370;2022-11-20T01:49:20;26.15;;;18.13;;
71238;SDS011;61342;51.442;7.370;2022-11-20T01:50:27;24.80;;;17.05;;
71238;SDS011;61342;51.442;7.370;2022-11-20T01:51:29;25.65;;;17.13;;
71238;SDS011;61342;51.442;7.370;2022-11-20T01:52:36;23.95;;;17.48;;
71238;SDS011;61342;51.442;7.370;2022-11-20T01:53:43;24.75;;;16.70;;
71238;SDS011;61342;51.442;7.370;2022-11-20T01:54:46;22.10;;;16.27;;
71238;SDS011;61342;51.442;7.370;2022-11-20T01:55:51;20.63;;;15.52;;
71238;SDS011;61342;51.442;7.370;2022-11-20T01:56:55;22.83;;;16.77;;
71238;SDS011;61342;51.442;7.370;2022-11-20T01:57:59;23.38;;;16.52;;
71238;SDS011;61342;51.442;7.370;2022-11-20T01:59:02;23.60;;;17.30;;
71238;SDS011;61342;51.442;7.370;2022-11-20T02:00:07;26.95;;;16.35;;
71238;SDS011;61342;51.442;7.370;2022-11-20T02:01:11;23.00;;;15.85;;
71238;SDS011;61342;51.442;7.370;2022-11-20T02:02:12;24.80;;;17.23;;
71238;SDS011;61342;51.442;7.370;2022-11-20T02:03:14;23.70;;;17.50;;
71238;SDS011;61342;51.442;7.370;2022-11-20T02:04:16;21.67;;;16.08;;
71238;SDS011;61342;51.442;7.370;2022-11-20T02:05:19;23.13;;;17.80;;
71238;SDS011;61342;51.442;7.370;2022-11-20T02:06:48;21.92;;;16.73;;
71238;SDS011;61342;51.442;7.370;2022-11-20T02:07:54;24.95;;;17.20;;
71238;SDS011;61342;51.442;7.370;2022-11-20T02:08:57;25.83;;;17.05;;
71238;SDS011;61342;51.442;7.370;2022-11-20T02:09:58;22.97;;;16.73;;
71238;SDS011;61342;51.442;7.370;2022-11-20T02:10:58;21.03;;;15.37;;
71238;SDS011;61342;51.442;7.370;2022-11-20T02:11:58;20.97;;;16.40;;
71238;SDS011;61342;51.442;7.370;2022-11-20T02:12:59;23.87;;;17.10;;
71238;SDS011;61342;51.442;7.370;2022-11-20T02:14:18;19.77;;;14.85;;
71238;SDS011;61342;51.442;7.370;2022-11-20T02:15:19;18.35;;;13.63;;
71238;SDS011;61342;51.442;7.370;2022-11-20T02:17:20;19.03;;;14.53;;
71238;SDS011;61342;51.442;7.370;2022-11-20T02:18:20;20.23;;;14.47;;
71238;SDS011;61342;51.442;7.370;2022-11-20T02:19:22;23.23;;;15.57;;
71238;SDS011;61342;51.442;7.370;2022-11-20T02:20:26;22.13;;;15.60;;
71238;SDS011;61342;51.442;7.370;2022-11-20T02:22:35;25.63;;;17.50;;
71238;SDS011;61342;51.442;7.370;2022-11-20T02:24:13;23.20;;;16.70;;
71238;SDS011;61342;51.442;7.370;2022-11-20T02:25:15;25.20;;;16.65;;
71238;SDS011;61342;51.442;7.370;2022-11-20T02:26:16;23.02;;;16.02;;
71238;SDS011;61342;51.442;7.370;2022-11-20T02:27:19;22.75;;;16.65;;
71238;SDS011;61342;51.442;7.370;2022-11-20T02:28:20;23.07;;;16.17;;
71238;SDS011;61342;51.442;7.370;2022-11-20T02:29:40;21.75;;;15.27;;
71238;SDS011;61342;51.442;7.370;2022-11-20T02:30:45;19.42;;;13.90;;
71238;SDS011;61342;51.442;7.370;2022-11-20T02:31:46;20.03;;;13.90;;
71238;SDS011;61342;51.442;7.370;2022-11-20T02:32:47;18.27;;;13.18;;
71238;SDS011;61342;51.442;7.370;2022-11-20T02:33:47;18.23;;;13.10;;
71238;SDS011;61342;51.442;7.370;2022-11-20T02:34:47;19.07;;;13.20;;
71238;SDS011;61342;51.442;7.370;2022-11-20T02:35:48;20.33;;;12.97;;
71238;SDS011;61342;51.442;7.370;2022-11-20T02:36:49;20.33;;;14.67;;
71238;SDS011;61342;51.442;7.370;2022-11-20T02:37:52;21.10;;;14.68;;
71238;SDS011;61342;51.442;7.370;2022-11-20T02:38:54;18.33;;;14.00;;
71238;SDS011;61342;51.442;7.370;2022-11-20T02:39:55;22.00;;;14.40;;
71238;SDS011;61342;51.442;7.370;2022-11-20T02:40:56;18.43;;;13.70;;
71238;SDS011;61342;51.442;7.370;2022-11-20T02:41:56;22.10;;;15.63;;
71238;SDS011;61342;51.442;7.370;2022-11-20T02:42:57;21.57;;;15.20;;
71238;SDS011;61342;51.442;7.370;2022-11-20T02:43:58;20.92;;;15.07;;
71238;SDS011;61342;51.442;7.370;2022-11-20T02:44:58;24.50;;;17.00;;
71238;SDS011;61342;51.442;7.370;2022-11-20T02:45:58;25.40;;;18.53;;
71238;SDS011;61342;51.442;7.370;2022-11-20T02:46:59;23.83;;;16.80;;
71238;SDS011;61342;51.442;7.370;2022-11-20T02:47:59;23.90;;;18.23;;
71238;SDS011;61342;51.442;7.370;2022-11-20T02:49:01;22.20;;;16.80;;
71238;SDS011;61342;51.442;7.370;2022-11-20T02:50:03;23.75;;;17.65;;
71238;SDS011;61342;51.442;7.370;2022-11-20T02:51:06;23.48;;;17.83;;
71238;SDS011;61342;51.442;7.370;2022-11-20T02:52:06;23.93;;;17.20;;
71238;SDS011;61342;51.442;7.370;2022-11-20T02:53:07;22.33;;;16.83;;
71238;SDS011;61342;51.442;7.370;2022-11-20T02:54:07;22.57;;;16.50;;
71238;SDS011;61342;51.442;7.370;2022-11-20T02:55:07;23.77;;;16.57;;
71238;SDS011;61342;51.442;7.370;2022-11-20T02:56:08;23.67;;;17.10;;
71238;SDS011;61342;51.442;7.370;2022-11-20T02:57:08;23.00;;;17.47;;
71238;SDS011;61342;51.442;7.370;2022-11-20T02:58:09;24.27;;;17.17;;
71238;SDS011;61342;51.442;7.370;2022-11-20T02:59:09;23.73;;;17.27;;
71238;SDS011;61342;51.442;7.370;2022-11-20T03:00:10;22.30;;;16.90;;
71238;SDS011;61342;51.442;7.370;2022-11-20T03:01:11;21.90;;;15.90;;
71238;SDS011;61342;51.442;7.370;2022-11-20T03:02:11;23.40;;;17.03;;
71238;SDS011;61342;51.442;7.370;2022-11-20T03:03:12;22.43;;;16.80;;
71238;SDS011;61342;51.442;7.370;2022-11-20T03:04:12;20.93;;;15.47;;
71238;SDS011;61342;51.442;7.370;2022-11-20T03:05:12;22.93;;;16.40;;
71238;SDS011;61342;51.442;7.370;2022-11-20T03:06:16;21.50;;;15.45;;
71238;SDS011;61342;51.442;7.370;2022-11-20T03:07:16;21.35;;;14.98;;
71238;SDS011;61342;51.442;7.370;2022-11-20T03:08:16;21.97;;;14.93;;
71238;SDS011;61342;51.442;7.370;2022-11-20T03:09:17;20.77;;;15.37;;
71238;SDS011;61342;51.442;7.370;2022-11-20T03:10:17;21.87;;;16.13;;
71238;SDS011;61342;51.442;7.370;2022-11-20T03:11:18;25.03;;;16.90;;
71238;SDS011;61342;51.442;7.370;2022-11-20T03:12:18;21.57;;;16.70;;
71238;SDS011;61342;51.442;7.370;2022-11-20T03:13:18;24.23;;;16.73;;
71238;SDS011;61342;51.442;7.370;2022-11-20T03:14:19;23.27;;;16.83;;
71238;SDS011;61342;51.442;7.370;2022-11-20T03:15:19;23.87;;;17.70;;
71238;SDS011;61342;51.442;7.370;2022-11-20T03:16:20;25.57;;;17.97;;
71238;SDS011;61342;51.442;7.370;2022-11-20T03:17:22;23.48;;;17.30;;
71238;SDS011;61342;51.442;7.370;2022-11-20T03:18:22;23.47;;;16.73;;
71238;SDS011;61342;51.442;7.370;2022-11-20T03:19:22;25.73;;;17.93;;
71238;SDS011;61342;51.442;7.370;2022-11-20T03:20:23;27.13;;;17.80;;
71238;SDS011;61342;51.442;7.370;2022-11-20T03:21:24;22.67;;;15.90;;
71238;SDS011;61342;51.442;7.370;2022-11-20T03:22:28;23.50;;;17.63;;
71238;SDS011;61342;51.442;7.370;2022-11-20T03:23:30;23.90;;;17.05;;
71238;SDS011;61342;51.442;7.370;2022-11-20T03:24:32;21.60;;;16.10;;
71238;SDS011;61342;51.442;7.370;2022-11-20T03:25:32;24.57;;;17.17;;
71238;SDS011;61342;51.442;7.370;2022-11-20T03:26:32;23.00;;;17.47;;
71238;SDS011;61342;51.442;7.370;2022-11-20T03:27:33;24.73;;;17.30;;
71238;SDS011;61342;51.442;7.370;2022-11-20T03:28:35;22.80;;;17.00;;
71238;SDS011;61342;51.442;7.370;2022-11-20T03:29:35;21.90;;;16.43;;
71238;SDS011;61342;51.442;7.370;2022-11-20T03:30:35;22.33;;;17.43;;
71238;SDS011;61342;51.442;7.370;2022-11-20T03:31:37;23.30;;;16.97;;
71238;SDS011;61342;51.442;7.370;2022-11-20T03:32:40;24.05;;;17.67;;
71238;SDS011;61342;51.442;7.370;2022-11-20T03:33:41;21.50;;;16.73;;
71238;SDS011;61342;51.442;7.370;2022-11-20T03:34:42;25.52;;;17.27;;
71238;SDS011;61342;51.442;7.370;2022-11-20T03:35:42;23.10;;;16.47;;
71238;SDS011;61342;51.442;7.370;2022-11-20T03:36:42;26.03;;;17.30;;
71238;SDS011;61342;51.442;7.370;2022-11-20T03:37:43;22.00;;;15.83;;
71238;SDS011;61342;51.442;7.370;2022-11-20T03:38:45;24.20;;;16.52;;
71238;SDS011;61342;51.442;7.370;2022-11-20T03:39:46;20.63;;;16.13;;
71238;SDS011;61342;51.442;7.370;2022-11-20T03:40:46;22.57;;;16.80;;
71238;SDS011;61342;51.442;7.370;2022-11-20T03:41:54;20.52;;;15.20;;
71238;SDS011;61342;51.442;7.370;2022-11-20T03:42:57;21.27;;;14.67;;
71238;SDS011;61342;51.442;7.370;2022-11-20T03:44:01;18.98;;;13.93;;
71238;SDS011;61342;51.442;7.370;2022-11-20T03:45:05;18.40;;;13.77;;
71238;SDS011;61342;51.442;7.370;2022-11-20T03:46:08;16.98;;;13.32;;
71238;SDS011;61342;51.442;7.370;2022-11-20T03:47:19;18.17;;;12.80;;
71238;SDS011;61342;51.442;7.370;2022-11-20T03:48:29;15.63;;;12.18;;
71238;SDS011;61342;51.442;7.370;2022-11-20T03:49:32;17.17;;;12.48;;
71238;SDS011;61342;51.442;7.370;2022-11-20T03:50:33;16.27;;;12.73;;
71238;SDS011;61342;51.442;7.370;2022-11-20T03:51:36;16.27;;;11.88;;
71238;SDS011;61342;51.442;7.370;2022-11-20T03:52:37;17.73;;;13.00;;
71238;SDS011;61342;51.442;7.370;2022-11-20T03:53:37;18.03;;;13.13;;
71238;SDS011;61342;51.442;7.370;2022-11-20T03:54:38;16.20;;;13.00;;
71238;SDS011;61342;51.442;7.370;2022-11-20T03:55:39;18.17;;;13.23;;
71238;SDS011;61342;51.442;7.370;2022-11-20T03:56:39;21.37;;;14.27;;
71238;SDS011;61342;51.442;7.370;2022-11-20T03:57:39;18.50;;;13.57;;
71238;SDS011;61342;51.442;7.370;2022-11-20T03:58:40;18.27;;;13.77;;
71238;SDS011;61342;51.442;7.370;2022-11-20T03:59:41;16.57;;;13.10;;
71238;SDS011;61342;51.442;7.370;2022-11-20T04:00:41;19.63;;;14.07;;
71238;SDS011;61342;51.442;7.370;2022-11-20T04:01:41;16.63;;;12.67;;
71238;SDS011;61342;51.442;7.370;2022-11-20T04:02:42;20.87;;;13.43;;
71238;SDS011;61342;51.442;7.370;2022-11-20T04:03:42;17.37;;;13.43;;
71238;SDS011;61342;51.442;7.370;2022-11-20T04:04:43;17.30;;;13.25;;
71238;SDS011;61342;51.442;7.370;2022-11-20T04:05:44;17.27;;;12.60;;
71238;SDS011;61342;51.442;7.370;2022-11-20T04:06:44;16.90;;;12.60;;
71238;SDS011;61342;51.442;7.370;2022-11-20T04:07:44;15.50;;;12.73;;
71238;SDS011;61342;51.442;7.370;2022-11-20T04:08:45;18.93;;;13.93;;
71238;SDS011;61342;51.442;7.370;2022-11-20T04:09:46;16.80;;;13.07;;
71238;SDS011;61342;51.442;7.370;2022-11-20T04:10:46;16.97;;;13.07;;
71238;SDS011;61342;51.442;7.370;2022-11-20T04:11:46;17.13;;;12.63;;
71238;SDS011;61342;51.442;7.370;2022-11-20T04:12:47;17.40;;;13.33;;
71238;SDS011;61342;51.442;7.370;2022-11-20T04:13:54;17.17;;;13.40;;
71238;SDS011;61342;51.442;7.370;2022-11-20T04:14:56;16.42;;;12.73;;
71238;SDS011;61342;51.442;7.370;2022-11-20T04:15:57;19.03;;;14.90;;
71238;SDS011;61342;51.442;7.370;2022-11-20T04:16:58;19.65;;;14.60;;
71238;SDS011;61342;51.442;7.370;2022-11-20T04:17:58;18.57;;;13.87;;
71238;SDS011;61342;51.442;7.370;2022-11-20T04:18:59;20.40;;;13.90;;
71238;SDS011;61342;51.442;7.370;2022-11-20T04:20:01;21.65;;;15.63;;
71238;SDS011;61342;51.442;7.370;2022-11-20T04:21:03;22.27;;;16.05;;
71238;SDS011;61342;51.442;7.370;2022-11-20T04:22:06;23.33;;;16.70;;
71238;SDS011;61342;51.442;7.370;2022-11-20T04:23:16;20.83;;;15.52;;
71238;SDS011;61342;51.442;7.370;2022-11-20T04:24:17;20.87;;;16.07;;
71238;SDS011;61342;51.442;7.370;2022-11-20T04:25:24;20.98;;;15.38;;
71238;SDS011;61342;51.442;7.370;2022-11-20T04:26:25;19.37;;;14.60;;
71238;SDS011;61342;51.442;7.370;2022-11-20T04:27:44;20.85;;;14.13;;
71238;SDS011;61342;51.442;7.370;2022-11-20T04:29:00;18.02;;;13.23;;
71238;SDS011;61342;51.442;7.370;2022-11-20T04:30:04;21.25;;;12.35;;
71238;SDS011;61342;51.442;7.370;2022-11-20T04:31:05;17.63;;;12.30;;
71238;SDS011;61342;51.442;7.370;2022-11-20T04:32:10;17.25;;;13.73;;
71238;SDS011;61342;51.442;7.370;2022-11-20T04:33:13;17.70;;;12.65;;
71238;SDS011;61342;51.442;7.370;2022-11-20T04:34:13;17.40;;;12.93;;
71238;SDS011;61342;51.442;7.370;2022-11-20T04:35:13;17.00;;;11.60;;
71238;SDS011;61342;51.442;7.370;2022-11-20T04:36:17;16.53;;;12.33;;
71238;SDS011;61342;51.442;7.370;2022-11-20T04:37:25;16.23;;;12.00;;
71238;SDS011;61342;51.442;7.370;2022-11-20T04:38:25;17.43;;;11.97;;
71238;SDS011;61342;51.442;7.370;2022-11-20T04:39:26;16.53;;;12.20;;
71238;SDS011;61342;51.442;7.370;2022-11-20T04:40:27;15.50;;;11.60;;
71238;SDS011;61342;51.442;7.370;2022-11-20T04:41:28;13.40;;;11.13;;
71238;SDS011;61342;51.442;7.370;2022-11-20T04:42:30;16.75;;;12.73;;
71238;SDS011;61342;51.442;7.370;2022-11-20T04:43:31;19.17;;;15.47;;
71238;SDS011;61342;51.442;7.370;2022-11-20T04:44:32;20.20;;;16.25;;
71238;SDS011;61342;51.442;7.370;2022-11-20T04:45:32;18.40;;;14.47;;
71238;SDS011;61342;51.442;7.370;2022-11-20T04:46:38;19.57;;;14.60;;
71238;SDS011;61342;51.442;7.370;2022-11-20T04:47:39;20.63;;;15.30;;
71238;SDS011;61342;51.442;7.370;2022-11-20T04:48:40;19.77;;;14.93;;
71238;SDS011;61342;51.442;7.370;2022-11-20T04:49:40;18.43;;;14.27;;
71238;SDS011;61342;51.442;7.370;2022-11-20T04:50:43;19.38;;;13.82;;
71238;SDS011;61342;51.442;7.370;2022-11-20T04:51:43;17.00;;;13.43;;
71238;SDS011;61342;51.442;7.370;2022-11-20T04:52:44;18.63;;;13.13;;
71238;SDS011;61342;51.442;7.370;2022-11-20T04:53:44;17.20;;;13.03;;
71238;SDS011;61342;51.442;7.370;2022-11-20T04:54:45;19.67;;;13.87;;
71238;SDS011;61342;51.442;7.370;2022-11-20T04:55:45;21.07;;;13.87;;
71238;SDS011;61342;51.442;7.370;2022-11-20T04:56:49;16.43;;;13.20;;
71238;SDS011;61342;51.442;7.370;2022-11-20T04:57:50;16.92;;;13.00;;
71238;SDS011;61342;51.442;7.370;2022-11-20T04:58:51;17.67;;;13.35;;
71238;SDS011;61342;51.442;7.370;2022-11-20T04:59:52;17.07;;;12.73;;
71238;SDS011;61342;51.442;7.370;2022-11-20T05:00:52;18.10;;;12.97;;
71238;SDS011;61342;51.442;7.370;2022-11-20T05:01:52;16.90;;;13.13;;
71238;SDS011;61342;51.442;7.370;2022-11-20T05:02:56;17.10;;;12.83;;
71238;SDS011;61342;51.442;7.370;2022-11-20T05:03:56;17.20;;;12.82;;
71238;SDS011;61342;51.442;7.370;2022-11-20T05:04:56;17.47;;;12.83;;
71238;SDS011;61342;51.442;7.370;2022-11-20T05:06:00;18.83;;;13.43;;
71238;SDS011;61342;51.442;7.370;2022-11-20T05:07:04;15.70;;;11.93;;
71238;SDS011;61342;51.442;7.370;2022-11-20T05:08:07;17.63;;;12.90;;
71238;SDS011;61342;51.442;7.370;2022-11-20T05:09:08;17.67;;;12.93;;
71238;SDS011;61342;51.442;7.370;2022-11-20T05:10:17;15.63;;;11.87;;
71238;SDS011;61342;51.442;7.370;2022-11-20T05:11:31;17.10;;;12.75;;
71238;SDS011;61342;51.442;7.370;2022-11-20T05:12:36;18.65;;;12.80;;
71238;SDS011;61342;51.442;7.370;2022-11-20T05:13:58;18.17;;;12.55;;
71238;SDS011;61342;51.442;7.370;2022-11-20T05:14:59;17.50;;;13.00;;
71238;SDS011;61342;51.442;7.370;2022-11-20T05:16:03;18.15;;;13.32;;
71238;SDS011;61342;51.442;7.370;2022-11-20T05:17:09;17.08;;;12.65;;
71238;SDS011;61342;51.442;7.370;2022-11-20T05:18:10;17.27;;;13.02;;
71238;SDS011;61342;51.442;7.370;2022-11-20T05:19:11;16.07;;;13.07;;
71238;SDS011;61342;51.442;7.370;2022-11-20T05:20:11;17.20;;;12.67;;
71238;SDS011;61342;51.442;7.370;2022-11-20T05:21:14;18.00;;;13.23;;
71238;SDS011;61342;51.442;7.370;2022-11-20T05:22:15;18.47;;;13.53;;
71238;SDS011;61342;51.442;7.370;2022-11-20T05:23:15;17.67;;;13.40;;
71238;SDS011;61342;51.442;7.370;2022-11-20T05:24:18;16.90;;;13.17;;
71238;SDS011;61342;51.442;7.370;2022-11-20T05:25:19;19.10;;;13.45;;
71238;SDS011;61342;51.442;7.370;2022-11-20T05:26:20;17.50;;;13.00;;
71238;SDS011;61342;51.442;7.370;2022-11-20T05:27:26;16.60;;;12.55;;
71238;SDS011;61342;51.442;7.370;2022-11-20T05:28:29;16.10;;;12.38;;
71238;SDS011;61342;51.442;7.370;2022-11-20T05:29:32;18.23;;;13.38;;
71238;SDS011;61342;51.442;7.370;2022-11-20T05:30:33;17.52;;;12.98;;
71238;SDS011;61342;51.442;7.370;2022-11-20T05:31:35;16.65;;;12.52;;
71238;SDS011;61342;51.442;7.370;2022-11-20T05:32:39;18.23;;;13.73;;
71238;SDS011;61342;51.442;7.370;2022-11-20T05:33:40;16.15;;;12.80;;
71238;SDS011;61342;51.442;7.370;2022-11-20T05:34:46;18.38;;;13.90;;
71238;SDS011;61342;51.442;7.370;2022-11-20T05:35:49;18.52;;;13.77;;
71238;SDS011;61342;51.442;7.370;2022-11-20T05:37:02;17.88;;;13.30;;
71238;SDS011;61342;51.442;7.370;2022-11-20T05:38:05;17.77;;;12.75;;
71238;SDS011;61342;51.442;7.370;2022-11-20T05:39:05;18.27;;;13.37;;
71238;SDS011;61342;51.442;7.370;2022-11-20T05:40:18;19.65;;;13.13;;
71238;SDS011;61342;51.442;7.370;2022-11-20T05:41:41;17.88;;;12.60;;
71238;SDS011;61342;51.442;7.370;2022-11-20T05:42:42;18.38;;;13.57;;
71238;SDS011;61342;51.442;7.370;2022-11-20T05:43:56;17.77;;;13.27;;
71238;SDS011;61342;51.442;7.370;2022-11-20T05:45:00;18.60;;;12.32;;
71238;SDS011;61342;51.442;7.370;2022-11-20T05:46:15;17.05;;;13.05;;
71238;SDS011;61342;51.442;7.370;2022-11-20T05:47:19;19.52;;;13.18;;
71238;SDS011;61342;51.442;7.370;2022-11-20T05:48:30;17.60;;;12.98;;
71238;SDS011;61342;51.442;7.370;2022-11-20T05:49:36;18.38;;;13.93;;
71238;SDS011;61342;51.442;7.370;2022-11-20T05:50:47;19.23;;;13.15;;
71238;SDS011;61342;51.442;7.370;2022-11-20T05:51:57;17.98;;;13.35;;
71238;SDS011;61342;51.442;7.370;2022-11-20T05:52:58;18.05;;;13.10;;
71238;SDS011;61342;51.442;7.370;2022-11-20T05:53:59;20.13;;;14.18;;
71238;SDS011;61342;51.442;7.370;2022-11-20T05:55:09;17.95;;;12.95;;
71238;SDS011;61342;51.442;7.370;2022-11-20T05:56:12;19.60;;;13.25;;
71238;SDS011;61342;51.442;7.370;2022-11-20T05:57:15;19.30;;;14.20;;
71238;SDS011;61342;51.442;7.370;2022-11-20T05:58:18;19.33;;;13.23;;
71238;SDS011;61342;51.442;7.370;2022-11-20T05:59:19;17.30;;;13.43;;
71238;SDS011;61342;51.442;7.370;2022-11-20T06:00:21;18.13;;;13.43;;
71238;SDS011;61342;51.442;7.370;2022-11-20T06:01:31;18.85;;;12.98;;
71238;SDS011;61342;51.442;7.370;2022-11-20T06:02:34;16.97;;;13.43;;
71238;SDS011;61342;51.442;7.370;2022-11-20T06:03:37;17.58;;;12.73;;
71238;SDS011;61342;51.442;7.370;2022-11-20T06:04:48;16.95;;;12.73;;
71238;SDS011;61342;51.442;7.370;2022-11-20T06:05:59;17.67;;;12.93;;
71238;SDS011;61342;51.442;7.370;2022-11-20T06:07:04;18.75;;;13.23;;
71238;SDS011;61342;51.442;7.370;2022-11-20T06:08:05;16.92;;;12.77;;
71238;SDS011;61342;51.442;7.370;2022-11-20T06:09:16;19.27;;;13.02;;
71238;SDS011;61342;51.442;7.370;2022-11-20T06:10:19;17.13;;;12.53;;
71238;SDS011;61342;51.442;7.370;2022-11-20T06:11:20;18.50;;;12.45;;
71238;SDS011;61342;51.442;7.370;2022-11-20T06:12:38;18.27;;;12.93;;
71238;SDS011;61342;51.442;7.370;2022-11-20T06:13:38;17.47;;;12.83;;